sensor_id;sensor_type;location;lat;lon;timestamp;P1;durP1;ratioP1;P2;durP2;ratioP2
64795;SDS011;51229;51.980;6.722;2022-12-18T00:01:05;39.63;;;16.35;;
64795;SDS011;51229;51.980;6.722;2022-12-18T00:03:40;41.40;;;17.08;;
64795;SDS011;51229;51.980;6.722;2022-12-18T00:06:06;42.70;;;17.65;;
64795;SDS011;51229;51.980;6.722;2022-12-18T00:08:31;42.15;;;17.30;;
64795;SDS011;51229;51.980;6.722;2022-12-18T00:11:07;42.28;;;18.83;;
64795;SDS011;51229;51.980;6.722;2022-12-18T00:13:36;42.08;;;17.73;;
64795;SDS011;51229;51.980;6.722;2022-12-18T00:16:02;37.30;;;16.33;;
64795;SDS011;51229;51.980;6.722;2022-12-18T00:18:29;42.70;;;17.77;;
64795;SDS011;51229;51.980;6.722;2022-12-18T00:20:58;37.45;;;16.67;;
64795;SDS011;51229;51.980;6.722;2022-12-18T00:23:25;40.42;;;16.98;;
64795;SDS011;51229;51.980;6.722;2022-12-18T00:25:51;41.08;;;17.05;;
64795;SDS011;51229;51.980;6.722;2022-12-18T00:28:17;42.72;;;18.17;;
64795;SDS011;51229;51.980;6.722;2022-12-18T00:30:42;40.33;;;18.08;;
64795;SDS011;51229;51.980;6.722;2022-12-18T00:33:08;41.90;;;16.83;;
64795;SDS011;51229;51.980;6.722;2022-12-18T00:35:34;44.30;;;18.27;;
64795;SDS011;51229;51.980;6.722;2022-12-18T00:37:59;53.40;;;21.75;;
64795;SDS011;51229;51.980;6.722;2022-12-18T00:40:25;47.45;;;19.83;;
64795;SDS011;51229;51.980;6.722;2022-12-18T00:42:52;39.80;;;16.98;;
64795;SDS011;51229;51.980;6.722;2022-12-18T00:45:28;36.97;;;16.15;;
64795;SDS011;51229;51.980;6.722;2022-12-18T00:47:55;41.78;;;16.15;;
64795;SDS011;51229;51.980;6.722;2022-12-18T00:50:22;40.72;;;17.23;;
64795;SDS011;51229;51.980;6.722;2022-12-18T00:52:49;43.40;;;16.60;;
64795;SDS011;51229;51.980;6.722;2022-12-18T00:55:14;39.72;;;17.52;;
64795;SDS011;51229;51.980;6.722;2022-12-18T00:57:40;39.45;;;17.35;;
64795;SDS011;51229;51.980;6.722;2022-12-18T01:00:07;44.33;;;18.08;;
64795;SDS011;51229;51.980;6.722;2022-12-18T01:02:35;38.33;;;16.67;;
64795;SDS011;51229;51.980;6.722;2022-12-18T01:05:01;35.90;;;15.48;;
64795;SDS011;51229;51.980;6.722;2022-12-18T01:07:26;39.00;;;16.65;;
64795;SDS011;51229;51.980;6.722;2022-12-18T01:09:52;38.85;;;16.20;;
64795;SDS011;51229;51.980;6.722;2022-12-18T01:12:18;42.72;;;16.80;;
64795;SDS011;51229;51.980;6.722;2022-12-18T01:14:43;38.72;;;15.30;;
64795;SDS011;51229;51.980;6.722;2022-12-18T01:17:09;42.33;;;17.58;;
64795;SDS011;51229;51.980;6.722;2022-12-18T01:19:35;39.25;;;16.52;;
64795;SDS011;51229;51.980;6.722;2022-12-18T01:22:02;36.10;;;15.57;;
64795;SDS011;51229;51.980;6.722;2022-12-18T01:24:28;39.92;;;17.20;;
64795;SDS011;51229;51.980;6.722;2022-12-18T01:26:54;39.40;;;17.40;;
64795;SDS011;51229;51.980;6.722;2022-12-18T01:29:19;40.45;;;16.63;;
64795;SDS011;51229;51.980;6.722;2022-12-18T01:31:45;38.53;;;15.60;;
64795;SDS011;51229;51.980;6.722;2022-12-18T01:34:10;38.00;;;16.08;;
64795;SDS011;51229;51.980;6.722;2022-12-18T01:36:37;44.97;;;17.45;;
64795;SDS011;51229;51.980;6.722;2022-12-18T01:39:05;40.08;;;17.00;;
64795;SDS011;51229;51.980;6.722;2022-12-18T01:41:33;39.20;;;16.88;;
64795;SDS011;51229;51.980;6.722;2022-12-18T01:49:51;32.53;;;14.35;;
64795;SDS011;51229;51.980;6.722;2022-12-18T01:52:18;33.67;;;14.48;;
64795;SDS011;51229;51.980;6.722;2022-12-18T01:54:45;32.53;;;14.85;;
64795;SDS011;51229;51.980;6.722;2022-12-18T01:57:13;36.13;;;15.52;;
64795;SDS011;51229;51.980;6.722;2022-12-18T01:59:39;38.70;;;16.05;;
64795;SDS011;51229;51.980;6.722;2022-12-18T02:02:09;37.67;;;15.40;;
64795;SDS011;51229;51.980;6.722;2022-12-18T02:04:34;41.42;;;15.43;;
64795;SDS011;51229;51.980;6.722;2022-12-18T02:09:33;38.13;;;14.57;;
64795;SDS011;51229;51.980;6.722;2022-12-18T02:14:44;40.80;;;16.00;;
64795;SDS011;51229;51.980;6.722;2022-12-18T02:17:30;35.70;;;14.90;;
64795;SDS011;51229;51.980;6.722;2022-12-18T02:20:12;43.03;;;17.23;;
64795;SDS011;51229;51.980;6.722;2022-12-18T02:25:40;39.88;;;15.68;;
64795;SDS011;51229;51.980;6.722;2022-12-18T02:28:28;37.15;;;14.45;;
64795;SDS011;51229;51.980;6.722;2022-12-18T02:31:01;38.53;;;14.55;;
64795;SDS011;51229;51.980;6.722;2022-12-18T02:33:31;39.70;;;14.52;;
64795;SDS011;51229;51.980;6.722;2022-12-18T02:35:58;38.13;;;16.02;;
64795;SDS011;51229;51.980;6.722;2022-12-18T02:38:27;37.60;;;15.05;;
64795;SDS011;51229;51.980;6.722;2022-12-18T02:40:57;38.28;;;15.07;;
64795;SDS011;51229;51.980;6.722;2022-12-18T02:43:25;39.80;;;15.25;;
64795;SDS011;51229;51.980;6.722;2022-12-18T02:45:57;39.63;;;16.40;;
64795;SDS011;51229;51.980;6.722;2022-12-18T02:48:28;35.67;;;15.50;;
64795;SDS011;51229;51.980;6.722;2022-12-18T02:51:06;37.20;;;15.50;;
64795;SDS011;51229;51.980;6.722;2022-12-18T02:53:45;35.08;;;14.90;;
64795;SDS011;51229;51.980;6.722;2022-12-18T02:56:49;36.00;;;15.45;;
64795;SDS011;51229;51.980;6.722;2022-12-18T02:59:21;44.00;;;15.50;;
64795;SDS011;51229;51.980;6.722;2022-12-18T03:02:04;32.50;;;13.40;;
64795;SDS011;51229;51.980;6.722;2022-12-18T03:04:38;40.58;;;15.65;;
64795;SDS011;51229;51.980;6.722;2022-12-18T03:07:11;33.95;;;14.35;;
64795;SDS011;51229;51.980;6.722;2022-12-18T03:09:44;36.97;;;15.57;;
64795;SDS011;51229;51.980;6.722;2022-12-18T03:14:56;33.55;;;15.13;;
64795;SDS011;51229;51.980;6.722;2022-12-18T03:17:23;32.72;;;14.57;;
64795;SDS011;51229;51.980;6.722;2022-12-18T03:19:52;42.30;;;16.92;;
64795;SDS011;51229;51.980;6.722;2022-12-18T03:22:22;39.22;;;16.83;;
64795;SDS011;51229;51.980;6.722;2022-12-18T03:24:51;37.92;;;15.57;;
64795;SDS011;51229;51.980;6.722;2022-12-18T03:27:21;38.50;;;14.48;;
64795;SDS011;51229;51.980;6.722;2022-12-18T03:29:53;34.85;;;14.52;;
64795;SDS011;51229;51.980;6.722;2022-12-18T03:32:33;35.40;;;14.63;;
64795;SDS011;51229;51.980;6.722;2022-12-18T03:35:22;33.33;;;14.13;;
64795;SDS011;51229;51.980;6.722;2022-12-18T03:37:57;32.65;;;13.50;;
64795;SDS011;51229;51.980;6.722;2022-12-18T03:40:26;41.35;;;15.35;;
64795;SDS011;51229;51.980;6.722;2022-12-18T03:43:10;37.10;;;15.60;;
64795;SDS011;51229;51.980;6.722;2022-12-18T03:45:51;33.83;;;15.38;;
64795;SDS011;51229;51.980;6.722;2022-12-18T03:48:28;33.63;;;15.32;;
64795;SDS011;51229;51.980;6.722;2022-12-18T03:51:06;32.70;;;14.75;;
64795;SDS011;51229;51.980;6.722;2022-12-18T03:56:04;35.13;;;14.55;;
64795;SDS011;51229;51.980;6.722;2022-12-18T03:58:36;28.67;;;14.50;;
64795;SDS011;51229;51.980;6.722;2022-12-18T04:01:14;28.40;;;13.27;;
64795;SDS011;51229;51.980;6.722;2022-12-18T04:03:42;31.23;;;13.45;;
64795;SDS011;51229;51.980;6.722;2022-12-18T04:06:11;32.30;;;14.32;;
64795;SDS011;51229;51.980;6.722;2022-12-18T04:08:39;29.77;;;13.70;;
64795;SDS011;51229;51.980;6.722;2022-12-18T04:11:08;31.45;;;14.70;;
64795;SDS011;51229;51.980;6.722;2022-12-18T04:13:35;32.08;;;13.80;;
64795;SDS011;51229;51.980;6.722;2022-12-18T04:16:05;33.95;;;13.93;;
64795;SDS011;51229;51.980;6.722;2022-12-18T04:18:31;31.45;;;14.32;;
64795;SDS011;51229;51.980;6.722;2022-12-18T04:20:59;31.27;;;13.93;;
64795;SDS011;51229;51.980;6.722;2022-12-18T04:23:25;28.48;;;13.10;;
64795;SDS011;51229;51.980;6.722;2022-12-18T04:25:54;31.95;;;13.15;;
64795;SDS011;51229;51.980;6.722;2022-12-18T04:28:34;30.67;;;14.32;;
64795;SDS011;51229;51.980;6.722;2022-12-18T04:31:00;31.27;;;13.57;;
64795;SDS011;51229;51.980;6.722;2022-12-18T04:33:26;33.55;;;15.07;;
64795;SDS011;51229;51.980;6.722;2022-12-18T04:35:52;32.83;;;14.88;;
64795;SDS011;51229;51.980;6.722;2022-12-18T04:38:18;36.08;;;14.90;;
64795;SDS011;51229;51.980;6.722;2022-12-18T04:40:47;31.95;;;13.77;;
64795;SDS011;51229;51.980;6.722;2022-12-18T04:43:20;38.22;;;13.98;;
64795;SDS011;51229;51.980;6.722;2022-12-18T04:45:46;30.85;;;13.30;;
64795;SDS011;51229;51.980;6.722;2022-12-18T04:48:11;32.17;;;13.45;;
64795;SDS011;51229;51.980;6.722;2022-12-18T04:50:37;31.38;;;12.80;;
64795;SDS011;51229;51.980;6.722;2022-12-18T04:53:03;30.27;;;13.38;;
64795;SDS011;51229;51.980;6.722;2022-12-18T04:55:29;29.23;;;14.07;;
64795;SDS011;51229;51.980;6.722;2022-12-18T04:57:55;27.55;;;12.93;;
64795;SDS011;51229;51.980;6.722;2022-12-18T05:00:20;29.30;;;13.13;;
64795;SDS011;51229;51.980;6.722;2022-12-18T05:02:47;27.52;;;12.38;;
64795;SDS011;51229;51.980;6.722;2022-12-18T05:05:12;28.88;;;13.40;;
64795;SDS011;51229;51.980;6.722;2022-12-18T05:07:38;28.48;;;13.77;;
64795;SDS011;51229;51.980;6.722;2022-12-18T05:10:04;30.08;;;13.43;;
64795;SDS011;51229;51.980;6.722;2022-12-18T05:12:31;30.17;;;13.20;;
64795;SDS011;51229;51.980;6.722;2022-12-18T05:14:57;31.90;;;13.65;;
64795;SDS011;51229;51.980;6.722;2022-12-18T05:17:23;27.00;;;12.63;;
64795;SDS011;51229;51.980;6.722;2022-12-18T05:19:49;31.23;;;13.55;;
64795;SDS011;51229;51.980;6.722;2022-12-18T05:22:14;30.08;;;13.57;;
64795;SDS011;51229;51.980;6.722;2022-12-18T05:24:40;32.05;;;12.88;;
64795;SDS011;51229;51.980;6.722;2022-12-18T05:27:05;25.63;;;13.10;;
64795;SDS011;51229;51.980;6.722;2022-12-18T05:29:31;30.83;;;12.98;;
64795;SDS011;51229;51.980;6.722;2022-12-18T05:31:57;24.00;;;12.50;;
64795;SDS011;51229;51.980;6.722;2022-12-18T05:34:23;24.65;;;12.18;;
64795;SDS011;51229;51.980;6.722;2022-12-18T05:36:48;25.70;;;12.43;;
64795;SDS011;51229;51.980;6.722;2022-12-18T05:39:14;29.17;;;12.52;;
64795;SDS011;51229;51.980;6.722;2022-12-18T05:41:39;27.13;;;12.23;;
64795;SDS011;51229;51.980;6.722;2022-12-18T05:44:05;29.00;;;12.15;;
64795;SDS011;51229;51.980;6.722;2022-12-18T05:46:31;23.48;;;11.60;;
64795;SDS011;51229;51.980;6.722;2022-12-18T05:48:59;26.25;;;12.50;;
64795;SDS011;51229;51.980;6.722;2022-12-18T05:51:26;26.23;;;12.30;;
64795;SDS011;51229;51.980;6.722;2022-12-18T05:53:52;28.23;;;12.73;;
64795;SDS011;51229;51.980;6.722;2022-12-18T05:56:18;26.33;;;11.77;;
64795;SDS011;51229;51.980;6.722;2022-12-18T05:58:46;28.67;;;12.45;;
64795;SDS011;51229;51.980;6.722;2022-12-18T06:01:14;24.83;;;11.88;;
64795;SDS011;51229;51.980;6.722;2022-12-18T06:03:42;28.85;;;11.07;;
64795;SDS011;51229;51.980;6.722;2022-12-18T06:06:14;29.55;;;12.27;;
64795;SDS011;51229;51.980;6.722;2022-12-18T06:08:45;24.85;;;11.82;;
64795;SDS011;51229;51.980;6.722;2022-12-18T06:11:11;22.73;;;10.88;;
64795;SDS011;51229;51.980;6.722;2022-12-18T06:13:37;26.65;;;12.15;;
64795;SDS011;51229;51.980;6.722;2022-12-18T06:16:03;25.58;;;11.40;;
64795;SDS011;51229;51.980;6.722;2022-12-18T06:18:30;24.70;;;11.30;;
64795;SDS011;51229;51.980;6.722;2022-12-18T06:20:56;25.25;;;11.98;;
64795;SDS011;51229;51.980;6.722;2022-12-18T06:23:22;24.08;;;11.38;;
64795;SDS011;51229;51.980;6.722;2022-12-18T06:25:48;24.55;;;12.15;;
64795;SDS011;51229;51.980;6.722;2022-12-18T06:28:14;31.55;;;12.88;;
64795;SDS011;51229;51.980;6.722;2022-12-18T06:30:39;26.63;;;12.98;;
64795;SDS011;51229;51.980;6.722;2022-12-18T06:33:07;26.08;;;11.90;;
64795;SDS011;51229;51.980;6.722;2022-12-18T06:35:34;26.67;;;13.13;;
64795;SDS011;51229;51.980;6.722;2022-12-18T06:38:00;28.05;;;12.85;;
64795;SDS011;51229;51.980;6.722;2022-12-18T06:40:27;28.38;;;12.30;;
64795;SDS011;51229;51.980;6.722;2022-12-18T06:42:53;24.30;;;11.50;;
64795;SDS011;51229;51.980;6.722;2022-12-18T06:45:18;23.60;;;11.18;;
64795;SDS011;51229;51.980;6.722;2022-12-18T06:47:44;25.35;;;13.10;;
64795;SDS011;51229;51.980;6.722;2022-12-18T06:50:10;25.50;;;12.05;;
64795;SDS011;51229;51.980;6.722;2022-12-18T06:52:36;22.33;;;11.07;;
64795;SDS011;51229;51.980;6.722;2022-12-18T06:55:02;26.13;;;11.73;;
64795;SDS011;51229;51.980;6.722;2022-12-18T06:57:28;24.77;;;11.27;;
64795;SDS011;51229;51.980;6.722;2022-12-18T06:59:53;25.10;;;11.30;;
64795;SDS011;51229;51.980;6.722;2022-12-18T07:02:19;26.75;;;11.35;;
64795;SDS011;51229;51.980;6.722;2022-12-18T07:04:45;22.83;;;10.60;;
64795;SDS011;51229;51.980;6.722;2022-12-18T07:07:10;22.30;;;10.88;;
64795;SDS011;51229;51.980;6.722;2022-12-18T07:09:36;21.02;;;9.90;;
64795;SDS011;51229;51.980;6.722;2022-12-18T07:12:02;20.73;;;11.48;;
64795;SDS011;51229;51.980;6.722;2022-12-18T07:14:27;25.17;;;11.25;;
64795;SDS011;51229;51.980;6.722;2022-12-18T07:16:54;22.77;;;10.57;;
64795;SDS011;51229;51.980;6.722;2022-12-18T07:19:19;21.58;;;10.32;;
64795;SDS011;51229;51.980;6.722;2022-12-18T07:21:45;18.77;;;9.38;;
64795;SDS011;51229;51.980;6.722;2022-12-18T07:24:11;20.40;;;9.75;;
64795;SDS011;51229;51.980;6.722;2022-12-18T07:26:37;21.17;;;10.65;;
64795;SDS011;51229;51.980;6.722;2022-12-18T07:29:02;20.77;;;10.48;;
64795;SDS011;51229;51.980;6.722;2022-12-18T07:31:28;18.50;;;9.68;;
64795;SDS011;51229;51.980;6.722;2022-12-18T07:33:54;21.77;;;10.10;;
64795;SDS011;51229;51.980;6.722;2022-12-18T07:36:19;22.17;;;10.18;;
64795;SDS011;51229;51.980;6.722;2022-12-18T07:38:48;21.77;;;10.02;;
64795;SDS011;51229;51.980;6.722;2022-12-18T07:41:15;20.48;;;8.55;;
64795;SDS011;51229;51.980;6.722;2022-12-18T07:43:41;19.17;;;10.40;;
64795;SDS011;51229;51.980;6.722;2022-12-18T07:46:07;20.23;;;10.35;;
64795;SDS011;51229;51.980;6.722;2022-12-18T07:48:34;20.77;;;9.45;;
64795;SDS011;51229;51.980;6.722;2022-12-18T07:51:00;22.65;;;9.90;;
64795;SDS011;51229;51.980;6.722;2022-12-18T07:53:30;17.20;;;8.38;;
64795;SDS011;51229;51.980;6.722;2022-12-18T07:55:57;25.15;;;12.23;;
64795;SDS011;51229;51.980;6.722;2022-12-18T07:58:27;20.90;;;10.63;;
64795;SDS011;51229;51.980;6.722;2022-12-18T08:00:54;14.40;;;8.38;;
64795;SDS011;51229;51.980;6.722;2022-12-18T08:03:26;20.25;;;10.13;;
64795;SDS011;51229;51.980;6.722;2022-12-18T08:05:52;21.13;;;9.65;;
64795;SDS011;51229;51.980;6.722;2022-12-18T08:08:17;20.27;;;10.02;;
64795;SDS011;51229;51.980;6.722;2022-12-18T08:10:43;21.42;;;10.45;;
64795;SDS011;51229;51.980;6.722;2022-12-18T08:13:09;21.55;;;10.93;;
64795;SDS011;51229;51.980;6.722;2022-12-18T08:15:34;24.52;;;10.40;;
64795;SDS011;51229;51.980;6.722;2022-12-18T08:18:00;24.85;;;10.65;;
64795;SDS011;51229;51.980;6.722;2022-12-18T08:20:26;21.98;;;12.15;;
64795;SDS011;51229;51.980;6.722;2022-12-18T08:22:52;19.55;;;10.70;;
64795;SDS011;51229;51.980;6.722;2022-12-18T08:25:18;23.10;;;12.02;;
64795;SDS011;51229;51.980;6.722;2022-12-18T08:27:43;20.33;;;10.70;;
64795;SDS011;51229;51.980;6.722;2022-12-18T08:30:09;25.20;;;12.77;;
64795;SDS011;51229;51.980;6.722;2022-12-18T08:32:35;23.65;;;12.52;;
64795;SDS011;51229;51.980;6.722;2022-12-18T08:35:01;21.23;;;10.07;;
64795;SDS011;51229;51.980;6.722;2022-12-18T08:37:27;20.55;;;10.95;;
64795;SDS011;51229;51.980;6.722;2022-12-18T08:39:53;17.10;;;10.10;;
64795;SDS011;51229;51.980;6.722;2022-12-18T08:42:18;20.30;;;10.05;;
64795;SDS011;51229;51.980;6.722;2022-12-18T08:45:02;22.52;;;10.00;;
64795;SDS011;51229;51.980;6.722;2022-12-18T08:47:28;18.83;;;9.05;;
64795;SDS011;51229;51.980;6.722;2022-12-18T08:49:54;21.05;;;10.60;;
64795;SDS011;51229;51.980;6.722;2022-12-18T08:52:20;18.27;;;9.20;;
64795;SDS011;51229;51.980;6.722;2022-12-18T08:54:45;24.40;;;11.18;;
64795;SDS011;51229;51.980;6.722;2022-12-18T08:57:11;20.27;;;8.93;;
64795;SDS011;51229;51.980;6.722;2022-12-18T08:59:37;23.63;;;11.70;;
64795;SDS011;51229;51.980;6.722;2022-12-18T09:02:02;20.05;;;10.05;;
64795;SDS011;51229;51.980;6.722;2022-12-18T09:04:28;20.23;;;10.52;;
64795;SDS011;51229;51.980;6.722;2022-12-18T09:06:54;23.10;;;12.43;;
64795;SDS011;51229;51.980;6.722;2022-12-18T09:09:19;20.65;;;10.13;;
64795;SDS011;51229;51.980;6.722;2022-12-18T09:11:45;23.20;;;12.13;;
64795;SDS011;51229;51.980;6.722;2022-12-18T09:14:11;23.65;;;12.32;;
64795;SDS011;51229;51.980;6.722;2022-12-18T09:16:36;21.83;;;10.32;;
64795;SDS011;51229;51.980;6.722;2022-12-18T09:19:02;21.77;;;11.98;;
64795;SDS011;51229;51.980;6.722;2022-12-18T09:21:30;21.80;;;11.32;;
64795;SDS011;51229;51.980;6.722;2022-12-18T09:23:58;20.65;;;10.45;;
64795;SDS011;51229;51.980;6.722;2022-12-18T09:26:24;21.48;;;11.45;;
64795;SDS011;51229;51.980;6.722;2022-12-18T09:28:51;22.63;;;11.27;;
64795;SDS011;51229;51.980;6.722;2022-12-18T09:31:18;23.08;;;11.82;;
64795;SDS011;51229;51.980;6.722;2022-12-18T09:33:45;22.02;;;12.75;;
64795;SDS011;51229;51.980;6.722;2022-12-18T09:36:12;20.15;;;10.07;;
64795;SDS011;51229;51.980;6.722;2022-12-18T09:38:39;21.05;;;12.27;;
64795;SDS011;51229;51.980;6.722;2022-12-18T09:44:02;19.38;;;10.88;;
64795;SDS011;51229;51.980;6.722;2022-12-18T09:46:37;21.90;;;11.85;;
64795;SDS011;51229;51.980;6.722;2022-12-18T09:49:11;18.58;;;10.63;;
64795;SDS011;51229;51.980;6.722;2022-12-18T09:54:12;12.35;;;7.18;;
64795;SDS011;51229;51.980;6.722;2022-12-18T09:56:47;17.83;;;10.13;;
64795;SDS011;51229;51.980;6.722;2022-12-18T09:59:27;19.30;;;9.93;;
64795;SDS011;51229;51.980;6.722;2022-12-18T10:02:11;18.42;;;9.35;;
64795;SDS011;51229;51.980;6.722;2022-12-18T10:04:48;15.05;;;9.18;;
64795;SDS011;51229;51.980;6.722;2022-12-18T10:07:35;17.25;;;8.25;;
64795;SDS011;51229;51.980;6.722;2022-12-18T10:10:40;17.50;;;8.77;;
64795;SDS011;51229;51.980;6.722;2022-12-18T10:13:21;17.52;;;9.77;;
64795;SDS011;51229;51.980;6.722;2022-12-18T10:16:17;18.40;;;9.60;;
64795;SDS011;51229;51.980;6.722;2022-12-18T10:24:02;21.17;;;9.73;;
64795;SDS011;51229;51.980;6.722;2022-12-18T10:26:40;19.65;;;10.23;;
64795;SDS011;51229;51.980;6.722;2022-12-18T10:29:09;17.88;;;8.70;;
64795;SDS011;51229;51.980;6.722;2022-12-18T10:31:37;14.50;;;7.22;;
64795;SDS011;51229;51.980;6.722;2022-12-18T10:34:03;16.17;;;8.57;;
64795;SDS011;51229;51.980;6.722;2022-12-18T10:36:29;17.08;;;9.50;;
64795;SDS011;51229;51.980;6.722;2022-12-18T10:39:01;15.25;;;8.13;;
64795;SDS011;51229;51.980;6.722;2022-12-18T10:41:40;15.63;;;8.38;;
64795;SDS011;51229;51.980;6.722;2022-12-18T10:44:19;16.10;;;7.88;;
64795;SDS011;51229;51.980;6.722;2022-12-18T10:46:47;17.63;;;10.02;;
64795;SDS011;51229;51.980;6.722;2022-12-18T10:49:27;14.68;;;9.80;;
64795;SDS011;51229;51.980;6.722;2022-12-18T10:57:35;16.95;;;9.40;;
64795;SDS011;51229;51.980;6.722;2022-12-18T11:00:28;17.33;;;9.77;;
64795;SDS011;51229;51.980;6.722;2022-12-18T11:02:55;15.77;;;8.40;;
64795;SDS011;51229;51.980;6.722;2022-12-18T11:08:02;13.23;;;7.85;;
64795;SDS011;51229;51.980;6.722;2022-12-18T11:10:46;16.70;;;9.23;;
64795;SDS011;51229;51.980;6.722;2022-12-18T11:13:15;14.05;;;8.05;;
64795;SDS011;51229;51.980;6.722;2022-12-18T11:15:43;14.90;;;7.40;;
64795;SDS011;51229;51.980;6.722;2022-12-18T11:18:25;14.55;;;7.88;;
64795;SDS011;51229;51.980;6.722;2022-12-18T11:20:54;12.90;;;7.55;;
64795;SDS011;51229;51.980;6.722;2022-12-18T11:23:22;16.38;;;8.30;;
64795;SDS011;51229;51.980;6.722;2022-12-18T11:25:59;13.73;;;7.60;;
64795;SDS011;51229;51.980;6.722;2022-12-18T11:28:34;12.93;;;7.05;;
64795;SDS011;51229;51.980;6.722;2022-12-18T11:31:32;13.73;;;7.10;;
64795;SDS011;51229;51.980;6.722;2022-12-18T11:34:07;14.13;;;7.57;;
64795;SDS011;51229;51.980;6.722;2022-12-18T11:36:45;13.77;;;8.02;;
64795;SDS011;51229;51.980;6.722;2022-12-18T11:39:17;12.30;;;7.45;;
64795;SDS011;51229;51.980;6.722;2022-12-18T11:41:56;14.35;;;7.60;;
64795;SDS011;51229;51.980;6.722;2022-12-18T11:44:37;13.25;;;7.10;;
64795;SDS011;51229;51.980;6.722;2022-12-18T11:47:19;13.32;;;7.43;;
64795;SDS011;51229;51.980;6.722;2022-12-18T11:49:52;12.15;;;6.57;;
64795;SDS011;51229;51.980;6.722;2022-12-18T11:52:27;13.48;;;7.13;;
64795;SDS011;51229;51.980;6.722;2022-12-18T11:55:01;13.52;;;7.07;;
64795;SDS011;51229;51.980;6.722;2022-12-18T11:57:42;13.18;;;7.53;;
64795;SDS011;51229;51.980;6.722;2022-12-18T12:00:15;14.48;;;7.97;;
64795;SDS011;51229;51.980;6.722;2022-12-18T12:03:06;13.32;;;6.50;;
64795;SDS011;51229;51.980;6.722;2022-12-18T12:08:29;14.63;;;7.45;;
64795;SDS011;51229;51.980;6.722;2022-12-18T12:12:13;12.98;;;6.18;;
64795;SDS011;51229;51.980;6.722;2022-12-18T12:14:33;15.85;;;8.07;;
64795;SDS011;51229;51.980;6.722;2022-12-18T12:17:17;13.75;;;7.18;;
64795;SDS011;51229;51.980;6.722;2022-12-18T12:20:02;11.85;;;6.88;;
64795;SDS011;51229;51.980;6.722;2022-12-18T12:22:50;12.90;;;7.25;;
64795;SDS011;51229;51.980;6.722;2022-12-18T12:25:37;13.88;;;6.85;;
64795;SDS011;51229;51.980;6.722;2022-12-18T12:28:37;14.38;;;7.15;;
64795;SDS011;51229;51.980;6.722;2022-12-18T12:42:27;15.30;;;7.35;;
64795;SDS011;51229;51.980;6.722;2022-12-18T12:45:20;15.07;;;7.70;;
64795;SDS011;51229;51.980;6.722;2022-12-18T12:47:52;12.57;;;6.93;;
64795;SDS011;51229;51.980;6.722;2022-12-18T12:50:20;12.38;;;6.60;;
64795;SDS011;51229;51.980;6.722;2022-12-18T12:52:50;11.40;;;6.53;;
64795;SDS011;51229;51.980;6.722;2022-12-18T12:55:19;13.05;;;6.85;;
64795;SDS011;51229;51.980;6.722;2022-12-18T12:57:54;14.63;;;7.47;;
64795;SDS011;51229;51.980;6.722;2022-12-18T13:00:21;12.13;;;6.78;;
64795;SDS011;51229;51.980;6.722;2022-12-18T13:06:02;13.85;;;7.32;;
64795;SDS011;51229;51.980;6.722;2022-12-18T13:08:55;13.82;;;7.85;;
64795;SDS011;51229;51.980;6.722;2022-12-18T13:11:30;13.00;;;7.07;;
64795;SDS011;51229;51.980;6.722;2022-12-18T13:14:38;15.02;;;8.43;;
64795;SDS011;51229;51.980;6.722;2022-12-18T13:20:09;12.93;;;6.60;;
64795;SDS011;51229;51.980;6.722;2022-12-18T13:22:37;12.60;;;8.00;;
64795;SDS011;51229;51.980;6.722;2022-12-18T13:27:59;11.77;;;6.55;;
64795;SDS011;51229;51.980;6.722;2022-12-18T13:35:39;10.02;;;5.60;;
64795;SDS011;51229;51.980;6.722;2022-12-18T13:41:03;12.90;;;6.97;;
64795;SDS011;51229;51.980;6.722;2022-12-18T13:43:48;12.18;;;6.13;;
64795;SDS011;51229;51.980;6.722;2022-12-18T13:49:01;12.23;;;6.20;;
64795;SDS011;51229;51.980;6.722;2022-12-18T13:51:43;15.25;;;8.30;;
64795;SDS011;51229;51.980;6.722;2022-12-18T13:54:19;14.57;;;6.85;;
64795;SDS011;51229;51.980;6.722;2022-12-18T13:56:58;12.75;;;7.18;;
64795;SDS011;51229;51.980;6.722;2022-12-18T13:59:25;13.73;;;7.30;;
64795;SDS011;51229;51.980;6.722;2022-12-18T14:02:07;21.05;;;8.82;;
64795;SDS011;51229;51.980;6.722;2022-12-18T14:04:38;13.95;;;7.78;;
64795;SDS011;51229;51.980;6.722;2022-12-18T14:07:05;12.38;;;6.78;;
64795;SDS011;51229;51.980;6.722;2022-12-18T14:09:40;14.20;;;7.38;;
64795;SDS011;51229;51.980;6.722;2022-12-18T14:12:26;15.15;;;7.50;;
64795;SDS011;51229;51.980;6.722;2022-12-18T14:15:24;13.82;;;7.28;;
64795;SDS011;51229;51.980;6.722;2022-12-18T14:17:58;14.95;;;6.80;;
64795;SDS011;51229;51.980;6.722;2022-12-18T14:20:39;15.15;;;7.18;;
64795;SDS011;51229;51.980;6.722;2022-12-18T14:26:01;12.50;;;7.32;;
64795;SDS011;51229;51.980;6.722;2022-12-18T14:28:29;13.45;;;6.55;;
64795;SDS011;51229;51.980;6.722;2022-12-18T14:30:55;12.65;;;6.95;;
64795;SDS011;51229;51.980;6.722;2022-12-18T14:33:25;11.73;;;7.22;;
64795;SDS011;51229;51.980;6.722;2022-12-18T14:38:28;16.58;;;7.65;;
64795;SDS011;51229;51.980;6.722;2022-12-18T14:41:05;14.85;;;7.80;;
64795;SDS011;51229;51.980;6.722;2022-12-18T14:43:36;13.15;;;7.95;;
64795;SDS011;51229;51.980;6.722;2022-12-18T14:46:05;12.63;;;7.85;;
64795;SDS011;51229;51.980;6.722;2022-12-18T14:48:50;13.32;;;7.22;;
64795;SDS011;51229;51.980;6.722;2022-12-18T14:51:29;13.77;;;8.02;;
64795;SDS011;51229;51.980;6.722;2022-12-18T14:53:58;14.35;;;8.35;;
64795;SDS011;51229;51.980;6.722;2022-12-18T14:56:26;12.93;;;7.05;;
64795;SDS011;51229;51.980;6.722;2022-12-18T14:59:18;13.00;;;7.95;;
64795;SDS011;51229;51.980;6.722;2022-12-18T15:04:26;14.73;;;7.70;;
64795;SDS011;51229;51.980;6.722;2022-12-18T15:09:42;12.52;;;7.32;;
64795;SDS011;51229;51.980;6.722;2022-12-18T15:12:43;14.10;;;7.05;;
64795;SDS011;51229;51.980;6.722;2022-12-18T15:18:03;13.82;;;7.03;;
64795;SDS011;51229;51.980;6.722;2022-12-18T15:20:33;12.18;;;7.15;;
64795;SDS011;51229;51.980;6.722;2022-12-18T15:25:43;13.05;;;7.88;;
64795;SDS011;51229;51.980;6.722;2022-12-18T15:28:19;12.70;;;8.82;;
64795;SDS011;51229;51.980;6.722;2022-12-18T15:30:58;14.18;;;8.30;;
64795;SDS011;51229;51.980;6.722;2022-12-18T15:33:34;13.82;;;8.35;;
64795;SDS011;51229;51.980;6.722;2022-12-18T15:36:03;15.02;;;7.82;;
64795;SDS011;51229;51.980;6.722;2022-12-18T15:38:30;12.27;;;6.88;;
64795;SDS011;51229;51.980;6.722;2022-12-18T15:40:56;14.13;;;7.32;;
64795;SDS011;51229;51.980;6.722;2022-12-18T15:43:23;14.68;;;7.55;;
64795;SDS011;51229;51.980;6.722;2022-12-18T15:46:02;14.95;;;7.55;;
64795;SDS011;51229;51.980;6.722;2022-12-18T15:48:31;14.32;;;8.00;;
64795;SDS011;51229;51.980;6.722;2022-12-18T15:51:02;15.68;;;8.70;;
64795;SDS011;51229;51.980;6.722;2022-12-18T15:53:30;16.23;;;8.98;;
64795;SDS011;51229;51.980;6.722;2022-12-18T15:55:58;16.80;;;8.23;;
64795;SDS011;51229;51.980;6.722;2022-12-18T15:58:42;15.43;;;8.15;;
64795;SDS011;51229;51.980;6.722;2022-12-18T16:01:08;14.52;;;8.65;;
64795;SDS011;51229;51.980;6.722;2022-12-18T16:03:35;14.52;;;8.30;;
64795;SDS011;51229;51.980;6.722;2022-12-18T16:06:01;16.05;;;8.52;;
64795;SDS011;51229;51.980;6.722;2022-12-18T16:08:29;17.75;;;9.68;;
64795;SDS011;51229;51.980;6.722;2022-12-18T16:10:55;21.80;;;9.85;;
64795;SDS011;51229;51.980;6.722;2022-12-18T16:13:22;18.92;;;9.85;;
64795;SDS011;51229;51.980;6.722;2022-12-18T16:15:48;19.00;;;10.25;;